Time;durP1;ratioP1;P1;durP2;ratioP2;P2;SDS_P1;SDS_P2;PMS_P1;PMS_P2;Temp;Humidity;BMP_temperature;BMP_pressure;BME280_temperature;BME280_humidity;BME280_pressure;Samples;Min_cycle;Max_cycle;Signal;HPM_P1;HPM_P2
2022/08/10 00:01:57;;;;;;;5.53;2.65;;;;;;;12.90;80.64;97605.84;10495568;28;20713;-75
2022/08/10 00:06:57;;;;;;;5.85;2.60;;;;;;;12.92;80.63;97601.25;10496136;28;20194;-75
2022/08/10 00:11:58;;;;;;;5.33;2.77;;;;;;;12.85;81.03;97601.03;10494639;28;20191;-75
2022/08/10 00:16:58;;;;;;;3.97;2.72;;;;;;;12.79;81.73;97599.81;10495052;28;20183;-75
2022/08/10 00:21:58;;;;;;;3.03;2.60;;;;;;;12.82;81.70;97589.00;10493997;28;20258;-75
2022/08/10 00:26:59;;;;;;;7.47;2.80;;;;;;;12.81;81.56;97592.59;10494339;28;20605;-75
2022/08/10 00:31:59;;;;;;;10.13;2.92;;;;;;;12.84;81.99;97592.28;10475904;28;20566;-75
2022/08/10 00:37:00;;;;;;;5.30;2.42;;;;;;;12.90;81.81;97583.00;10494174;28;20678;-75
2022/08/10 00:42:00;;;;;;;2.92;2.40;;;;;;;12.84;81.84;97580.97;10493537;28;20619;-75
2022/08/10 00:47:00;;;;;;;4.53;2.80;;;;;;;12.74;82.94;97588.91;10493322;28;20194;-75
2022/08/10 00:52:01;;;;;;;6.75;2.60;;;;;;;12.67;83.46;97591.28;10493076;28;20195;-75
2022/08/10 00:57:04;;;;;;;3.35;2.30;;;;;;;12.65;83.40;97595.06;10492723;28;20270;-75
2022/08/10 01:02:05;;;;;;;3.00;2.50;;;;;;;12.52;84.78;97597.22;10491583;28;20257;-75
2022/08/10 01:07:21;;;;;;;3.22;2.85;;;;;;;12.45;85.14;97597.81;10492808;28;20211;-75
2022/08/10 01:12:33;;;;;;;5.10;2.78;;;;;;;12.55;85.17;97596.91;10492071;28;20539;-75
2022/08/10 01:18:00;;;;;;;4.35;2.50;;;;;;;12.52;85.71;97591.94;10474561;28;20184;-75
2022/08/10 01:23:43;;;;;;;3.45;2.30;;;;;;;12.57;85.70;97582.66;10473749;28;20231;-75
2022/08/10 01:28:56;;;;;;;3.65;2.55;;;;;;;12.48;86.70;97592.25;10474231;28;20191;-75
2022/08/10 01:33:59;;;;;;;4.03;2.50;;;;;;;12.53;86.56;97585.72;10491745;28;20219;-75
2022/08/10 01:39:02;;;;;;;5.38;2.30;;;;;;;12.56;86.36;97583.63;10472753;28;20593;-74
2022/08/10 01:44:08;;;;;;;4.43;2.33;;;;;;;12.62;86.12;97583.03;10491460;28;20191;-75
2022/08/10 01:49:10;;;;;;;3.05;2.58;;;;;;;12.46;87.29;97588.91;10490471;28;20527;-75
2022/08/10 01:54:12;;;;;;;2.97;2.42;;;;;;;12.47;87.68;97590.59;10473234;28;20767;-75
2022/08/10 01:59:15;;;;;;;3.15;2.85;;;;;;;12.42;88.29;97587.56;10491113;28;20241;-75
2022/08/10 02:04:17;;;;;;;3.90;2.40;;;;;;;12.38;88.77;97588.84;10491622;28;20195;-74
2022/08/10 02:09:20;;;;;;;3.35;2.28;;;;;;;12.39;89.11;97592.28;10472876;28;21329;-75
2022/08/10 02:14:23;;;;;;;4.95;3.00;;;;;;;12.48;88.59;97594.03;10472779;28;20183;-75
2022/08/10 02:19:26;;;;;;;6.60;2.85;;;;;;;12.31;89.70;97600.88;10472412;28;20214;-75
2022/08/10 02:24:27;;;;;;;4.80;2.85;;;;;;;12.31;90.80;97596.47;10472071;28;20622;-74
2022/08/10 02:29:27;;;;;;;5.45;2.85;;;;;;;12.37;90.27;97602.94;10472796;28;20266;-75
2022/08/10 02:34:28;;;;;;;4.88;2.58;;;;;;;12.34;91.05;97597.97;10490435;28;20210;-75
2022/08/10 02:39:29;;;;;;;3.45;2.53;;;;;;;12.37;91.03;97592.44;10471701;28;20215;-74
2022/08/10 02:44:48;;;;;;;3.08;2.20;;;;;;;12.30;91.95;97594.00;10472313;28;20199;-75
2022/08/10 02:49:55;;;;;;;5.20;2.60;;;;;;;12.30;91.83;97583.50;10489970;28;20191;-75
2022/08/10 02:55:04;;;;;;;5.07;2.70;;;;;;;12.31;92.51;97593.84;10472340;28;20326;-75
2022/08/10 03:00:06;;;;;;;4.78;3.00;;;;;;;12.34;93.20;97590.09;10492772;28;20569;-75
2022/08/10 03:05:12;;;;;;;2.97;2.58;;;;;;;12.31;93.56;97585.13;10493950;28;20659;-75
2022/08/10 03:10:18;;;;;;;3.78;2.78;;;;;;;12.29;94.12;97589.72;10490694;28;20664;-75
2022/08/10 03:15:20;;;;;;;3.10;2.80;;;;;;;12.25;94.66;97593.59;10472828;28;20199;-75
2022/08/10 03:20:21;;;;;;;4.13;2.88;;;;;;;12.26;95.54;97593.44;10471925;28;20219;-75
2022/08/10 03:25:22;;;;;;;4.53;2.88;;;;;;;12.25;95.60;97590.97;10472385;28;20218;-75
2022/08/10 03:30:23;;;;;;;7.68;3.80;;;;;;;12.23;96.10;97591.13;10472360;28;20211;-76
2022/08/10 03:35:24;;;;;;;6.10;3.20;;;;;;;12.21;97.20;97587.00;10490171;28;20382;-75
2022/08/10 03:40:27;;;;;;;4.32;2.70;;;;;;;12.24;96.66;97582.25;10472122;28;20254;-75
2022/08/10 03:45:30;;;;;;;4.40;2.58;;;;;;;12.25;97.27;97588.34;10489983;28;20188;-75
2022/08/10 03:50:30;;;;;;;5.03;3.50;;;;;;;12.17;97.93;97598.75;10472516;28;20278;-74
2022/08/10 03:55:31;;;;;;;4.17;2.83;;;;;;;12.12;98.38;97597.38;10471073;28;20238;-75
2022/08/10 04:00:34;;;;;;;4.40;3.07;;;;;;;12.08;99.60;97606.53;10470813;28;20298;-74
2022/08/10 04:05:34;;;;;;;3.70;3.10;;;;;;;12.03;100.00;97608.75;10477926;28;20201;-74
2022/08/10 04:10:35;;;;;;;6.43;2.87;;;;;;;12.01;100.00;97608.06;10476347;28;20190;-75
2022/08/10 04:15:35;;;;;;;7.67;3.40;;;;;;;12.07;100.00;97604.06;10495617;28;20274;-74
2022/08/10 04:20:39;;;;;;;5.75;3.40;;;;;;;12.15;100.00;97617.28;10494724;28;20227;-75
2022/08/10 04:25:40;;;;;;;3.88;3.08;;;;;;;12.18;100.00;97616.19;10478321;28;20270;-75
2022/08/10 04:30:44;;;;;;;4.37;3.30;;;;;;;12.27;100.00;97620.56;10493153;28;20754;-75
2022/08/10 04:35:45;;;;;;;4.53;3.28;;;;;;;12.36;100.00;97617.06;10476304;28;20531;-75
2022/08/10 04:40:46;;;;;;;4.88;3.25;;;;;;;12.45;99.76;97613.56;10476706;28;20219;-75
2022/08/10 04:45:46;;;;;;;4.43;3.15;;;;;;;12.47;99.59;97618.69;10476937;28;20194;-75
2022/08/10 04:50:46;;;;;;;6.22;3.50;;;;;;;12.58;99.41;97622.91;10498356;28;20548;-75
2022/08/10 04:55:47;;;;;;;9.25;3.15;;;;;;;12.62;99.70;97621.66;10532964;28;20733;-75
2022/08/10 05:00:47;;;;;;;5.03;3.30;;;;;;;12.75;99.02;97629.19;10531976;28;20825;-75
2022/08/10 05:05:47;;;;;;;6.57;3.10;;;;;;;12.96;97.25;97621.84;10532980;28;20840;-75
2022/08/10 05:10:48;;;;;;;7.82;3.35;;;;;;;13.20;96.03;97617.81;10532889;28;20555;-75
2022/08/10 05:15:50;;;;;;;5.47;2.92;;;;;;;13.61;93.66;97617.34;10531986;28;20725;-75
2022/08/10 05:20:51;;;;;;;5.68;2.65;;;;;;;14.11;90.30;97613.22;10531903;28;20217;-75
2022/08/10 05:25:51;;;;;;;3.55;2.92;;;;;;;14.41;88.07;97609.22;10531237;28;20186;-75
2022/08/10 05:30:52;;;;;;;6.28;3.15;;;;;;;14.35;88.19;97618.59;10531902;28;20178;-75
2022/08/10 05:35:52;;;;;;;5.30;3.22;;;;;;;14.24;88.92;97619.72;10531624;28;20210;-75
2022/08/10 05:40:52;;;;;;;7.60;3.67;;;;;;;14.40;88.90;97615.50;10531475;28;20244;-75
2022/08/10 05:45:53;;;;;;;7.45;2.63;;;;;;;14.64;88.52;97612.16;10516187;28;20190;-74
2022/08/10 05:50:57;;;;;;;10.30;3.58;;;;;;;15.10;86.76;97622.31;10534269;28;20190;-75
2022/08/10 05:55:58;;;;;;;4.28;2.75;;;;;;;15.76;83.34;97591.47;10515192;28;20263;-75
2022/08/10 06:00:59;;;;;;;6.90;3.33;;;;;;;16.53;78.21;97561.81;10515710;28;20218;-75
2022/08/10 06:06:00;;;;;;;3.88;2.38;;;;;;;17.19;74.78;97544.72;10516086;28;20216;-75
2022/08/10 06:11:02;;;;;;;6.82;3.42;;;;;;;17.67;72.49;97531.22;10515522;28;20191;-75
2022/08/10 06:16:05;;;;;;;3.80;2.30;;;;;;;19.57;65.88;97463.81;10533413;28;20194;-75
2022/08/10 06:21:08;;;;;;;7.35;2.60;;;;;;;20.10;63.56;97452.69;10514474;28;20222;-74
2022/08/10 06:26:08;;;;;;;5.13;2.45;;;;;;;20.17;62.98;97456.19;10533286;28;20715;-74
2022/08/10 06:31:10;;;;;;;4.25;2.20;;;;;;;22.61;57.36;97397.59;10532916;28;20243;-75
2022/08/10 06:36:11;;;;;;;5.07;1.85;;;;;;;24.06;51.40;97327.84;10510200;28;20194;-75
2022/08/10 06:41:18;;;;;;;3.50;1.95;;;;;;;25.27;47.94;97295.31;10520155;28;20238;-75
2022/08/10 06:46:20;;;;;;;8.77;1.88;;;;;;;25.85;46.90;97306.16;10522822;28;20218;-75
2022/08/10 06:51:23;;;;;;;2.72;1.77;;;;;;;26.37;43.49;97242.56;10541067;28;20255;-75
2022/08/10 06:56:25;;;;;;;2.88;1.58;;;;;;;26.44;44.99;97300.47;10530625;28;20728;-75
2022/08/10 07:01:32;;;;;;;3.95;1.90;;;;;;;24.92;47.62;97328.34;10579514;28;20213;-75
2022/08/10 07:06:34;;;;;;;7.05;1.88;;;;;;;25.13;45.63;97285.06;10523667;28;20197;-74
2022/08/10 07:11:35;;;;;;;3.75;1.70;;;;;;;25.56;45.57;97303.44;10503647;28;20185;-74
2022/08/10 07:16:41;;;;;;;2.55;1.83;;;;;;;24.45;48.13;97344.34;10521566;28;20668;-75
2022/08/10 07:21:43;;;;;;;7.93;2.13;;;;;;;25.94;44.30;97283.22;10536230;28;20256;-75
2022/08/10 07:26:46;;;;;;;3.55;2.00;;;;;;;26.27;44.14;97288.91;10519433;28;20217;-75
2022/08/10 07:31:48;;;;;;;4.43;2.00;;;;;;;27.83;40.28;97245.81;10517747;28;20561;-75
2022/08/10 07:36:51;;;;;;;4.38;1.77;;;;;;;28.26;40.14;97241.38;10571670;28;20753;-75
2022/08/10 07:41:51;;;;;;;4.35;1.73;;;;;;;28.75;39.01;97245.78;10580552;28;20226;-75
2022/08/10 07:46:53;;;;;;;4.95;1.75;;;;;;;27.63;41.09;97246.44;10558112;28;20190;-75
2022/08/10 07:51:56;;;;;;;4.93;1.90;;;;;;;27.38;40.98;97246.94;10561205;28;20189;-75
2022/08/10 07:57:00;;;;;;;2.47;1.85;;;;;;;27.67;40.56;97231.41;10542139;28;20269;-75
2022/08/10 08:02:02;;;;;;;4.10;1.77;;;;;;;28.55;39.09;97243.72;10502528;28;20214;-75
2022/08/10 08:07:03;;;;;;;2.00;1.70;;;;;;;30.09;36.90;97234.63;10518876;28;20540;-75
2022/08/10 08:12:05;;;;;;;2.75;1.63;;;;;;;29.87;37.01;97220.28;10537067;28;20187;-75
2022/08/10 08:17:07;;;;;;;3.50;1.52;;;;;;;27.82;39.14;97189.53;10517739;28;20277;-75
2022/08/10 08:22:08;;;;;;;4.70;1.98;;;;;;;28.19;38.88;97226.47;10536453;28;20579;-75
2022/08/10 08:27:10;;;;;;;5.60;2.08;;;;;;;28.34;38.73;97240.06;10517380;28;20640;-74
2022/08/10 08:32:11;;;;;;;5.72;1.80;;;;;;;28.44;38.63;97236.66;10536503;28;20681;-74
2022/08/10 08:37:17;;;;;;;8.15;2.00;;;;;;;28.87;37.69;97220.47;10517211;28;20690;-75
2022/08/10 08:42:42;;;;;;;4.22;1.80;;;;;;;29.05;37.19;97206.56;10518131;28;20585;-75
2022/08/10 08:47:55;;;;;;;5.55;2.15;;;;;;;29.77;35.09;97168.94;10517543;28;20239;-74
2022/08/10 08:53:09;;;;;;;6.78;2.50;;;;;;;30.57;33.49;97151.34;10534502;28;20256;-75
2022/08/10 08:58:23;;;;;;;7.75;2.13;;;;;;;30.05;32.64;97099.28;10516471;28;20186;-74
2022/08/10 09:04:01;;;;;;;11.93;2.30;;;;;;;29.25;34.60;97134.84;10515850;28;20222;-75
2022/08/10 09:09:14;;;;;;;7.93;2.00;;;;;;;29.11;35.94;97165.03;10533468;28;20190;-74
2022/08/10 09:14:37;;;;;;;5.93;1.88;;;;;;;30.10;33.75;97153.28;10507003;28;20282;-75
2022/08/10 09:20:12;;;;;;;7.50;2.00;;;;;;;29.79;34.67;97152.47;10541164;28;20230;-75
2022/08/10 09:25:18;;;;;;;3.38;1.95;;;;;;;30.03;35.05;97182.47;10509318;28;20206;-74
2022/08/10 09:30:49;;;;;;;3.42;2.17;;;;;;;30.30;33.98;97130.81;10513258;28;20191;-75
2022/08/10 09:36:09;;;;;;;6.68;2.08;;;;;;;29.11;34.57;97105.66;10520132;28;20279;-74
2022/08/10 09:41:15;;;;;;;7.63;2.10;;;;;;;30.64;32.25;97124.00;10513705;28;20226;-74
2022/08/10 09:46:27;;;;;;;5.72;1.80;;;;;;;30.45;31.93;97085.97;10513123;28;20202;-75
2022/08/10 09:51:41;;;;;;;5.38;2.20;;;;;;;28.55;32.14;97005.72;10530523;28;20186;-74
2022/08/10 09:57:24;;;;;;;3.42;2.08;;;;;;;28.18;34.21;97087.44;10512894;28;20269;-75
2022/08/10 10:02:45;;;;;;;4.55;1.92;;;;;;;27.86;34.09;97051.44;10488822;28;20226;-74
2022/08/10 10:07:57;;;;;;;3.08;1.77;;;;;;;28.14;36.10;97153.72;10521361;28;20194;-74
2022/08/10 10:13:11;;;;;;;8.50;2.15;;;;;;;28.57;34.38;97122.16;10510271;28;20273;-74
2022/08/10 10:18:39;;;;;;;6.30;2.00;;;;;;;27.83;32.63;96994.59;10509188;28;20677;-75
2022/08/10 10:23:49;;;;;;;4.95;1.98;;;;;;;28.13;33.85;97065.88;10530544;28;20210;-75
2022/08/10 10:29:20;;;;;;;9.38;2.85;;;;;;;29.26;33.35;97083.31;10511578;28;20194;-75
2022/08/10 10:34:45;;;;;;;3.97;1.95;;;;;;;29.03;31.83;97044.13;10527081;28;20234;-76
2022/08/10 10:39:49;;;;;;;5.88;2.05;;;;;;;28.15;33.56;97052.97;10530510;28;20312;-75
2022/08/10 10:45:21;;;;;;;5.60;2.15;;;;;;;27.01;35.74;97078.97;10512352;28;20197;-75
2022/08/10 10:50:45;;;;;;;5.10;2.10;;;;;;;26.57;35.67;97046.72;10509047;28;20646;-75
2022/08/10 10:56:02;;;;;;;2.47;1.80;;;;;;;25.37;37.58;97085.53;10513677;28;20724;-75
2022/08/10 11:01:18;;;;;;;4.35;2.30;;;;;;;25.96;37.26;97105.78;10511281;28;20573;-75
2022/08/10 11:06:44;;;;;;;4.03;2.20;;;;;;;26.03;37.12;97111.81;10530987;28;20217;-76
2022/08/10 11:11:45;;;;;;;8.77;2.40;;;;;;;24.73;39.82;97123.19;10512224;28;20190;-75
2022/08/10 11:16:48;;;;;;;4.78;2.50;;;;;;;25.79;38.63;97138.00;10500320;28;20196;-75
2022/08/10 11:22:14;;;;;;;4.93;2.30;;;;;;;26.41;38.17;97163.94;10524042;28;20264;-75
2022/08/10 11:27:23;;;;;;;5.13;2.35;;;;;;;27.23;36.32;97135.38;10519254;28;20195;-74
2022/08/10 11:32:55;;;;;;;6.15;2.55;;;;;;;25.34;39.37;97133.47;10520087;28;20235;-74
2022/08/10 11:38:15;;;;;;;8.15;2.50;;;;;;;25.52;38.74;97141.31;10538491;28;20752;-77
2022/08/10 11:43:26;;;;;;;3.75;2.03;;;;;;;25.96;38.82;97162.97;10518285;28;20317;-74
2022/08/10 11:48:34;;;;;;;7.57;2.20;;;;;;;26.24;36.67;97099.50;10519996;28;20194;-74
2022/08/10 11:53:58;;;;;;;6.07;2.13;;;;;;;25.96;38.26;97136.13;10518400;28;20218;-77
2022/08/10 12:04:20;;;;;;;7.03;2.25;;;;;;;27.28;37.94;97180.34;10537146;28;20206;-75
2022/08/10 12:09:21;;;;;;;5.35;2.25;;;;;;;28.46;36.00;97173.31;10536486;28;20744;-75
2022/08/10 12:14:30;;;;;;;5.80;2.30;;;;;;;26.31;37.68;97115.41;10519144;28;20186;-75
2022/08/10 12:19:41;;;;;;;6.35;2.30;;;;;;;25.20;39.37;97106.91;10522675;28;20202;-75
2022/08/10 12:24:51;;;;;;;6.38;2.45;;;;;;;26.35;38.91;97162.22;10545347;28;21023;-75
2022/08/10 12:30:00;;;;;;;5.78;2.03;;;;;;;27.52;36.47;97148.63;10536451;28;20683;-76
2022/08/10 12:35:06;;;;;;;4.00;2.50;;;;;;;26.68;38.01;97128.31;10534741;28;20210;-74
2022/08/10 12:40:22;;;;;;;7.30;2.65;;;;;;;27.47;35.94;97097.41;10534866;28;20574;-74
2022/08/10 12:45:31;;;;;;;4.78;2.38;;;;;;;27.29;35.95;97093.22;10515547;28;20653;-74
2022/08/10 12:50:39;;;;;;;4.68;2.30;;;;;;;28.11;35.16;97093.88;10516576;28;20305;-75
2022/08/10 12:55:40;;;;;;;7.97;2.35;;;;;;;27.16;36.82;97096.31;10515549;28;20263;-75
2022/08/10 13:00:42;;;;;;;5.03;2.13;;;;;;;28.02;36.05;97135.03;10515913;28;20210;-75
2022/08/10 13:05:43;;;;;;;6.47;1.98;;;;;;;29.01;33.96;97100.25;10498818;28;20218;-75
2022/08/10 13:10:48;;;;;;;5.75;2.20;;;;;;;29.39;32.64;97049.59;10515134;28;20179;-76
2022/08/10 13:15:52;;;;;;;7.15;2.40;;;;;;;30.05;32.84;97072.25;10532531;28;20705;-74
2022/08/10 13:20:54;;;;;;;2.55;1.90;;;;;;;32.12;29.39;97035.53;10514994;28;20229;-75
2022/08/10 13:25:59;;;;;;;3.40;2.03;;;;;;;32.09;29.65;97027.16;10514588;28;20230;-74
2022/08/10 13:31:02;;;;;;;4.18;2.25;;;;;;;33.48;27.64;97009.00;10499899;28;20651;-74
2022/08/10 13:36:04;;;;;;;4.88;2.35;;;;;;;31.51;29.63;96971.91;10516147;28;20594;-75
2022/08/10 13:41:05;;;;;;;2.35;1.90;;;;;;;29.60;31.43;96952.38;10497381;28;20289;-75
2022/08/10 13:46:06;;;;;;;2.38;2.08;;;;;;;28.90;33.37;97007.72;10512990;28;20638;-76
2022/08/10 13:51:06;;;;;;;3.85;1.88;;;;;;;28.45;32.87;96976.84;10513459;28;20209;-75
2022/08/10 13:56:07;;;;;;;3.60;2.28;;;;;;;28.27;34.14;97002.38;10514020;28;20729;-73
2022/08/10 14:01:16;;;;;;;5.35;2.28;;;;;;;27.14;35.18;96974.72;10529130;28;20222;-75
2022/08/10 14:06:17;;;;;;;8.52;2.38;;;;;;;27.60;34.41;96983.16;10514368;28;20185;-75
2022/08/10 14:11:19;;;;;;;8.02;2.00;;;;;;;28.70;33.28;96981.53;10514343;28;20193;-74
2022/08/10 14:16:20;;;;;;;4.57;1.95;;;;;;;30.82;30.45;96990.81;10534413;28;20197;-74
2022/08/10 14:21:20;;;;;;;4.45;2.10;;;;;;;32.00;30.20;97008.78;10513295;28;20210;-75
2022/08/10 14:26:25;;;;;;;6.88;2.17;;;;;;;30.61;31.03;96965.81;10514954;28;20191;-75
2022/08/10 14:31:29;;;;;;;4.28;2.08;;;;;;;29.85;31.96;96938.06;10514688;28;20191;-75
2022/08/10 14:36:43;;;;;;;5.30;1.90;;;;;;;28.95;33.18;96964.53;10515809;28;20214;-74
2022/08/10 14:41:45;;;;;;;4.75;2.20;;;;;;;28.42;34.66;96993.53;10530515;28;20246;-75
2022/08/10 14:46:48;;;;;;;4.22;1.88;;;;;;;28.30;33.87;96958.72;10515521;28;20579;-74
2022/08/10 14:51:48;;;;;;;7.90;2.25;;;;;;;28.02;33.84;96946.50;10512502;28;20551;-75
2022/08/10 14:56:53;;;;;;;3.38;1.92;;;;;;;28.01;33.88;96950.28;10500715;28;20229;-75
2022/08/10 15:01:57;;;;;;;7.45;2.20;;;;;;;27.91;35.31;96994.09;10520343;28;20214;-75
2022/08/10 15:07:03;;;;;;;8.13;2.20;;;;;;;28.02;35.05;96984.22;10504971;28;20654;-76
2022/08/10 15:12:04;;;;;;;4.03;1.67;;;;;;;28.05;32.56;96894.81;10539638;28;20192;-75
2022/08/10 15:17:04;;;;;;;4.20;1.85;;;;;;;27.92;33.49;96925.72;10520743;28;20193;-74
2022/08/10 15:22:05;;;;;;;4.85;1.77;;;;;;;28.06;32.59;96889.16;10521468;28;20255;-74
2022/08/10 15:27:08;;;;;;;3.50;1.60;;;;;;;27.58;32.50;96851.53;10503676;28;20205;-75
2022/08/10 15:37:34;;;;;;;4.95;1.60;;;;;;;28.03;31.51;96832.34;10508542;28;20565;-74
2022/08/10 15:42:36;;;;;;;2.78;2.10;;;;;;;29.60;31.25;96903.78;10521225;28;20586;-76
2022/08/10 15:47:39;;;;;;;6.10;1.55;;;;;;;33.06;26.50;96887.50;10533512;28;20551;-76
2022/08/10 15:52:47;;;;;;;4.47;2.20;;;;;;;33.53;26.52;96908.41;10534230;28;20226;-75
2022/08/10 15:57:54;;;;;;;8.88;1.90;;;;;;;34.92;25.52;96919.09;10517476;28;20190;-74
2022/08/10 16:02:59;;;;;;;5.65;1.90;;;;;;;33.79;26.27;96905.22;10508239;28;20594;-76
2022/08/10 16:08:04;;;;;;;5.78;2.08;;;;;;;31.40;29.38;96889.97;10515506;28;20198;-75
2022/08/10 16:13:06;;;;;;;8.20;2.03;;;;;;;31.68;28.27;96852.31;10528833;28;20210;-77
2022/08/10 16:18:12;;;;;;;5.95;2.15;;;;;;;31.58;29.06;96890.34;10516965;28;20190;-76
2022/08/10 16:23:18;;;;;;;3.92;1.85;;;;;;;32.03;28.64;96885.47;10516025;28;20223;-75
2022/08/10 16:28:19;;;;;;;3.08;1.92;;;;;;;32.21;28.45;96875.78;10515447;28;20191;-76
2022/08/10 16:33:29;;;;;;;4.20;1.90;;;;;;;31.10;29.53;96864.84;10513769;28;20190;-76
2022/08/10 16:38:39;;;;;;;3.10;1.70;;;;;;;29.65;31.36;96855.19;10496596;28;20198;-77
2022/08/10 16:43:43;;;;;;;2.55;1.60;;;;;;;29.40;31.88;96861.47;10513652;28;20218;-76
2022/08/10 16:48:45;;;;;;;5.97;2.20;;;;;;;28.41;33.30;96884.94;10489193;28;20202;-74
2022/08/10 16:53:47;;;;;;;4.32;2.13;;;;;;;27.72;33.66;96868.00;10493130;28;20306;-75
2022/08/10 16:58:56;;;;;;;4.18;2.03;;;;;;;27.61;34.27;96882.47;10459252;28;20195;-74
2022/08/10 17:04:02;;;;;;;5.03;1.80;;;;;;;27.93;33.68;96885.06;10474392;28;20299;-74
2022/08/10 17:09:05;;;;;;;6.93;1.98;;;;;;;27.59;35.12;96911.56;10458575;28;20551;-75
2022/08/10 17:14:07;;;;;;;5.35;1.92;;;;;;;27.08;35.49;96906.63;10475169;28;20195;-75
2022/08/10 17:19:13;;;;;;;3.67;1.65;;;;;;;26.84;35.88;96911.56;10492757;28;20191;-75
2022/08/10 17:24:14;;;;;;;2.80;1.90;;;;;;;27.00;35.57;96917.88;10474141;28;20227;-74
2022/08/10 17:29:19;;;;;;;3.55;2.13;;;;;;;26.15;37.36;96931.81;10497284;28;20225;-75
2022/08/10 17:34:28;;;;;;;3.95;2.05;;;;;;;25.90;37.09;96924.25;10514603;28;20229;-75
2022/08/10 17:39:32;;;;;;;4.05;2.58;;;;;;;25.70;38.39;96952.44;10531815;28;20198;-75
2022/08/10 17:44:36;;;;;;;4.30;2.28;;;;;;;25.34;39.08;96972.56;10533073;28;20206;-75
2022/08/10 17:49:37;;;;;;;3.45;2.60;;;;;;;24.91;40.05;96997.03;10514109;28;20693;-74
2022/08/10 17:54:41;;;;;;;5.30;2.30;;;;;;;24.34;40.78;96983.63;10512789;28;20313;-76
2022/08/10 17:59:41;;;;;;;4.05;2.22;;;;;;;23.80;42.74;97022.09;10513692;28;20187;-75
2022/08/10 18:04:48;;;;;;;5.80;2.03;;;;;;;23.30;43.01;97035.91;10532525;28;20581;-75
2022/08/10 18:09:53;;;;;;;3.65;2.13;;;;;;;22.31;46.59;97094.94;10514054;28;20182;-75
2022/08/10 18:14:56;;;;;;;6.18;2.45;;;;;;;21.83;46.95;97109.75;10533259;28;20187;-75
2022/08/10 18:19:58;;;;;;;7.07;2.75;;;;;;;21.06;48.82;97139.13;10530277;28;20210;-74
2022/08/10 18:24:59;;;;;;;4.65;2.38;;;;;;;20.70;50.81;97191.91;10509671;28;20222;-74
2022/08/10 18:30:03;;;;;;;2.65;2.42;;;;;;;20.46;50.77;97180.91;10532722;28;20581;-74
2022/08/10 18:35:05;;;;;;;5.32;2.40;;;;;;;19.31;53.41;97231.53;10521147;28;20725;-74
2022/08/10 18:40:08;;;;;;;6.72;2.58;;;;;;;19.12;53.98;97251.66;10521816;28;20850;-74
2022/08/10 18:45:10;;;;;;;6.68;2.47;;;;;;;18.77;55.45;97277.38;10522399;28;20222;-74
2022/08/10 18:50:23;;;;;;;7.00;2.53;;;;;;;18.18;57.05;97312.03;10523437;28;20562;-74
2022/08/10 18:55:27;;;;;;;7.10;2.60;;;;;;;18.25;57.04;97313.94;10518858;28;20608;-74
2022/08/10 19:00:34;;;;;;;9.45;2.67;;;;;;;18.22;57.17;97311.66;10519261;28;20687;-74
2022/08/10 19:06:09;;;;;;;2.47;2.22;;;;;;;18.22;56.83;97307.16;10524011;28;20187;-74
2022/08/10 19:11:33;;;;;;;7.13;2.92;;;;;;;18.22;56.98;97312.47;10532741;28;20548;-74
2022/08/10 19:16:52;;;;;;;4.75;2.88;;;;;;;18.06;57.14;97312.75;10515195;28;20198;-74
2022/08/10 19:22:02;;;;;;;6.40;2.38;;;;;;;17.95;57.51;97319.38;10533473;28;20424;-75
2022/08/10 19:27:10;;;;;;;7.55;2.80;;;;;;;17.95;57.52;97314.06;10533024;28;20189;-74
2022/08/10 19:32:39;;;;;;;7.72;2.60;;;;;;;17.78;58.18;97306.31;10518986;28;20263;-74
2022/08/10 19:38:12;;;;;;;3.75;2.55;;;;;;;17.59;58.68;97312.22;10545590;28;20206;-74
2022/08/10 19:43:19;;;;;;;4.15;3.00;;;;;;;17.50;59.01;97322.09;10515978;28;20222;-74
2022/08/10 19:48:40;;;;;;;5.68;3.00;;;;;;;17.38;59.46;97326.22;10536380;28;21005;-74
2022/08/10 19:53:58;;;;;;;5.35;3.00;;;;;;;17.18;60.28;97332.09;10535333;28;20226;-74
2022/08/10 19:59:02;;;;;;;3.60;2.65;;;;;;;17.07;60.55;97345.75;10518440;28;20190;-74
2022/08/10 20:04:14;;;;;;;5.07;3.00;;;;;;;16.79;61.59;97348.19;10535531;28;20994;-74
2022/08/10 20:09:57;;;;;;;3.55;2.67;;;;;;;16.63;62.07;97349.97;10517896;28;20741;-74
2022/08/10 20:15:04;;;;;;;3.28;2.67;;;;;;;16.44;63.06;97361.06;10517073;28;20638;-74
2022/08/10 20:20:31;;;;;;;7.15;3.08;;;;;;;16.30;63.65;97358.16;10515945;28;20206;-74
2022/08/10 20:25:31;;;;;;;6.70;3.15;;;;;;;16.21;63.91;97367.16;10528385;28;20281;-74
2022/08/10 20:30:34;;;;;;;4.95;3.13;;;;;;;16.03;64.62;97368.28;10535749;28;20666;-74
2022/08/10 20:35:55;;;;;;;3.85;2.55;;;;;;;15.95;64.97;97376.25;10516913;28;20274;-74
2022/08/10 20:41:05;;;;;;;4.38;3.10;;;;;;;15.86;65.79;97369.34;10524121;28;20665;-73
2022/08/10 20:46:23;;;;;;;7.18;2.80;;;;;;;15.78;65.80;97364.13;10512390;28;20191;-74
2022/08/10 20:51:39;;;;;;;5.45;3.35;;;;;;;15.71;66.21;97363.94;10530564;28;20244;-74
2022/08/10 20:57:22;;;;;;;6.38;2.85;;;;;;;15.52;67.00;97381.03;10529832;28;20317;-74
2022/08/10 21:03:01;;;;;;;6.30;3.10;;;;;;;15.44;67.72;97373.16;10475785;28;20250;-75
2022/08/10 23:00:30;;;;;;;5.32;2.80;;;;;;;14.37;76.24;97382.03;10476814;28;20710;-76
2022/08/10 23:05:33;;;;;;;6.80;3.25;;;;;;;14.56;75.42;97378.25;10491349;28;20195;-76
2022/08/10 23:10:40;;;;;;;5.32;2.90;;;;;;;14.64;75.06;97364.28;10473592;28;20195;-76
2022/08/10 23:21:12;;;;;;;6.75;2.83;;;;;;;14.44;75.78;97383.03;10499129;28;20215;-75
2022/08/10 23:26:16;;;;;;;2.85;2.65;;;;;;;14.48;76.08;97383.50;10480779;28;20187;-76
2022/08/10 23:31:17;;;;;;;6.18;3.75;;;;;;;14.38;76.17;97385.47;10480995;28;20183;-74
2022/08/10 23:36:22;;;;;;;3.60;2.88;;;;;;;14.41;76.72;97390.41;10463537;28;20226;-75
2022/08/10 23:41:30;;;;;;;5.95;3.03;;;;;;;14.38;76.25;97386.31;10498643;28;20282;-75
2022/08/10 23:46:32;;;;;;;5.70;2.88;;;;;;;14.30;77.12;97386.28;10480266;28;20198;-75
2022/08/10 23:51:38;;;;;;;4.47;2.45;;;;;;;14.39;76.53;97379.22;10480389;28;20701;-74
2022/08/10 23:56:45;;;;;;;3.92;3.10;;;;;;;14.14;77.61;97383.66;10479219;28;20678;-75
